Time;durP1;ratioP1;P1;durP2;ratioP2;P2;SDS_P1;SDS_P2;PMS_P1;PMS_P2;Temp;Humidity;BMP_temperature;BMP_pressure;BME280_temperature;BME280_humidity;BME280_pressure;Samples;Min_cycle;Max_cycle;Signal;HPM_P1;HPM_P2
2023/04/01 03:13:03;;;;;;;12.50;9.40;;;;;;;9.09;100.00;97164.15;107255;1301;557721;-39
2023/04/01 03:15:28;;;;;;;14.60;9.00;;;;;;;9.11;100.00;97165.77;107524;1311;22479;-44
2023/04/01 03:17:54;;;;;;;14.10;9.50;;;;;;;9.11;100.00;97166.58;107475;1297;22318;-42
2023/04/01 03:20:20;;;;;;;14.90;9.30;;;;;;;9.12;100.00;97165.63;107468;1311;22446;-46
2023/04/01 03:22:45;;;;;;;13.40;10.30;;;;;;;9.13;100.00;97170.14;107475;1311;22263;-44
2023/04/01 03:25:11;;;;;;;14.80;10.00;;;;;;;9.17;100.00;97171.68;107335;1309;168886;-43
2023/04/01 03:27:36;;;;;;;12.90;9.70;;;;;;;9.18;100.00;97176.46;107710;1309;22276;-48
2023/04/01 03:30:06;;;;;;;14.10;9.60;;;;;;;9.19;100.00;97170.67;107697;1309;22493;-44
2023/04/01 03:32:31;;;;;;;12.70;9.10;;;;;;;9.21;100.00;97173.09;107739;1309;23119;-43
2023/04/01 03:34:57;;;;;;;13.20;8.90;;;;;;;9.26;100.00;97173.26;107728;1309;23053;-44
2023/04/01 03:37:23;;;;;;;10.10;8.20;;;;;;;9.28;100.00;97175.17;107727;1309;22131;-47
2023/04/01 03:39:48;;;;;;;9.30;7.20;;;;;;;9.23;100.00;97178.19;107699;1309;22278;-43
2023/04/01 03:42:14;;;;;;;12.10;7.90;;;;;;;9.21;100.00;97180.21;107741;1309;22261;-47
2023/04/01 03:44:40;;;;;;;10.70;7.40;;;;;;;9.21;100.00;97180.08;107756;1309;22603;-39
2023/04/01 03:47:05;;;;;;;10.70;8.20;;;;;;;9.20;100.00;97179.83;107727;1309;22117;-44
2023/04/01 03:49:31;;;;;;;12.70;7.90;;;;;;;9.20;100.00;97182.04;107741;1309;22240;-41
2023/04/01 03:51:58;;;;;;;12.80;8.80;;;;;;;9.22;100.00;97187.64;107582;1309;22254;-46
2023/04/01 03:54:23;;;;;;;12.10;7.30;;;;;;;9.21;100.00;97191.66;107728;1309;22442;-41
2023/04/01 03:56:48;;;;;;;10.20;7.30;;;;;;;9.16;99.95;97192.05;107733;1309;22284;-43
2023/04/01 03:59:14;;;;;;;11.50;7.70;;;;;;;9.14;99.82;97192.41;107738;1309;24048;-41
2023/04/01 04:01:39;;;;;;;13.00;7.00;;;;;;;9.09;99.45;97191.55;107731;1309;23119;-44
2023/04/01 04:04:05;;;;;;;10.40;7.10;;;;;;;9.05;99.42;97195.61;107729;1309;22307;-44
2023/04/01 04:06:30;;;;;;;11.50;7.50;;;;;;;9.01;99.76;97198.55;107729;1309;22481;-46
2023/04/01 04:08:56;;;;;;;11.70;7.70;;;;;;;9.01;99.75;97205.16;107711;1309;22466;-42
2023/04/01 04:11:22;;;;;;;9.20;6.80;;;;;;;8.97;99.77;97201.46;107719;1309;22589;-41
2023/04/01 04:13:47;;;;;;;12.00;7.20;;;;;;;8.94;99.79;97199.06;107735;1309;22845;-40
2023/04/01 04:16:13;;;;;;;7.30;6.50;;;;;;;8.94;99.90;97197.52;107740;1309;23063;-45
2023/04/01 04:18:39;;;;;;;10.50;7.70;;;;;;;8.96;99.91;97199.65;107713;1309;22256;-42
2023/04/01 04:21:04;;;;;;;11.00;7.50;;;;;;;8.96;99.58;97201.02;107740;1308;23504;-43
2023/04/01 04:23:31;;;;;;;12.90;7.60;;;;;;;8.93;99.85;97201.16;107693;1309;22273;-45
2023/04/01 04:25:58;;;;;;;13.30;6.90;;;;;;;8.92;99.85;97203.98;107678;1309;22489;-46
2023/04/01 04:28:26;;;;;;;16.00;7.70;;;;;;;8.88;99.71;97207.45;107679;1309;22511;-44
2023/04/01 04:30:52;;;;;;;12.20;7.00;;;;;;;8.90;99.51;97208.88;107675;1309;22515;-43
2023/04/01 04:33:18;;;;;;;15.10;6.80;;;;;;;8.90;99.43;97206.83;107681;1309;22439;-41
2023/04/01 04:35:43;;;;;;;13.90;7.30;;;;;;;8.86;99.28;97204.29;107667;1309;22267;-44
2023/04/01 04:38:08;;;;;;;9.20;6.50;;;;;;;8.87;99.11;97208.10;107667;1309;22264;-42
2023/04/01 04:40:37;;;;;;;8.90;6.50;;;;;;;8.83;98.78;97208.04;107656;1309;22523;-42
2023/04/01 04:43:03;;;;;;;9.50;6.40;;;;;;;8.76;98.71;97207.41;107693;1309;22223;-45
2023/04/01 04:45:28;;;;;;;13.30;6.40;;;;;;;8.68;99.03;97205.02;107677;1309;22239;-45
2023/04/01 04:47:53;;;;;;;11.70;7.20;;;;;;;8.69;98.95;97200.82;107658;1309;22265;-46
2023/04/01 04:50:19;;;;;;;10.40;6.50;;;;;;;8.66;99.07;97198.95;107649;1309;22424;-42
2023/04/01 04:52:44;;;;;;;9.20;6.20;;;;;;;8.64;99.18;97197.01;107668;1309;23863;-44
2023/04/01 04:55:09;;;;;;;9.80;6.30;;;;;;;8.64;99.78;97202.76;107663;1309;22453;-44
2023/04/01 04:57:35;;;;;;;9.40;6.70;;;;;;;8.67;99.42;97206.39;107668;1309;22388;-46
2023/04/01 05:00:00;;;;;;;9.40;6.50;;;;;;;8.71;99.50;97209.56;107674;1309;22342;-46
2023/04/01 05:02:25;;;;;;;12.40;7.30;;;;;;;8.72;99.41;97207.52;107674;1309;22517;-43
2023/04/01 05:04:50;;;;;;;13.50;6.80;;;;;;;8.70;99.45;97203.70;107679;1309;22243;-42
2023/04/01 05:07:16;;;;;;;9.50;6.70;;;;;;;8.73;99.90;97207.84;107671;1309;22446;-44
2023/04/01 05:09:41;;;;;;;10.00;6.70;;;;;;;8.76;99.89;97206.34;107693;1309;23092;-46
2023/04/01 05:12:06;;;;;;;12.40;6.40;;;;;;;8.81;99.50;97207.48;107687;1309;22246;-43
2023/04/01 05:14:32;;;;;;;10.10;6.70;;;;;;;8.84;99.46;97207.80;107682;1309;22290;-42
2023/04/01 05:16:57;;;;;;;12.10;6.60;;;;;;;8.88;99.35;97211.33;107659;1309;22252;-47
2023/04/01 05:19:22;;;;;;;11.40;5.50;;;;;;;8.89;99.23;97210.38;107683;1309;23380;-43
2023/04/01 05:21:48;;;;;;;9.20;5.30;;;;;;;8.92;98.98;97210.99;107675;1309;22433;-46
2023/04/01 05:24:13;;;;;;;9.20;6.10;;;;;;;8.96;98.84;97211.86;107672;1309;22291;-41
2023/04/01 05:26:38;;;;;;;10.80;5.80;;;;;;;8.94;99.15;97207.12;107671;1309;22431;-45
2023/04/01 05:29:05;;;;;;;9.50;6.30;;;;;;;9.01;98.79;97205.46;107702;1309;24478;-43
2023/04/01 05:31:30;;;;;;;11.40;6.60;;;;;;;9.06;98.65;97202.98;107695;1309;22224;-42
2023/04/01 05:33:56;;;;;;;7.00;5.90;;;;;;;9.06;98.88;97204.09;107695;1309;22986;-40
2023/04/01 05:36:21;;;;;;;8.30;5.80;;;;;;;9.09;98.55;97206.60;107659;1309;22230;-47
2023/04/01 05:38:47;;;;;;;7.80;5.90;;;;;;;9.12;98.49;97208.14;107697;1309;22261;-42
2023/04/01 05:41:13;;;;;;;9.40;6.30;;;;;;;9.18;98.27;97206.73;107694;1309;23074;-46
2023/04/01 05:43:40;;;;;;;8.20;6.20;;;;;;;9.16;98.20;97209.36;107669;1309;23141;-48
2023/04/01 05:46:05;;;;;;;9.20;5.50;;;;;;;9.13;98.11;97209.05;107694;1309;22426;-44
2023/04/01 05:48:32;;;;;;;11.50;5.70;;;;;;;9.13;98.18;97210.29;107679;1309;23121;-43
2023/04/01 05:50:58;;;;;;;11.40;6.50;;;;;;;9.14;98.34;97211.11;107660;1309;22379;-43
2023/04/01 05:53:23;;;;;;;10.10;5.70;;;;;;;9.13;98.43;97213.32;107670;1309;22246;-41
2023/04/01 05:55:48;;;;;;;8.80;6.30;;;;;;;9.12;98.31;97213.02;107670;1308;22537;-43
2023/04/01 05:58:14;;;;;;;8.90;6.10;;;;;;;9.13;98.26;97210.63;107675;1309;22251;-47
2023/04/01 06:00:39;;;;;;;8.10;5.30;;;;;;;9.18;98.51;97208.15;107666;1309;22709;-41
2023/04/01 06:03:04;;;;;;;8.00;5.70;;;;;;;9.16;98.79;97206.78;107681;1309;22251;-45
2023/04/01 06:05:39;;;;;;;9.10;5.20;;;;;;;9.17;98.96;97207.14;107654;1309;22250;-43
2023/04/01 06:08:15;;;;;;;11.20;5.20;;;;;;;9.23;99.31;97204.59;107683;1301;22454;-39
2023/04/01 06:11:03;;;;;;;7.20;5.50;;;;;;;9.22;99.14;97205.39;107699;1309;22409;-43
2023/04/01 06:13:42;;;;;;;8.30;5.70;;;;;;;9.27;98.81;97206.50;107665;1309;22198;-42
2023/04/01 06:16:52;;;;;;;7.40;5.30;;;;;;;9.35;98.72;97205.70;107686;1309;22519;-43
2023/04/01 06:19:23;;;;;;;8.10;5.80;;;;;;;9.38;98.40;97212.80;107678;1309;22280;-42
2023/04/01 06:22:30;;;;;;;9.50;5.30;;;;;;;9.41;98.18;97216.58;107681;1309;22245;-43
2023/04/01 06:25:12;;;;;;;;;;;;;;;9.41;98.05;97213.07;107161;1315;22519;-41
2023/04/01 06:28:22;;;;;;;11.70;6.40;;;;;;;9.38;98.35;97214.17;107186;1315;22375;-44
2023/04/01 06:30:55;;;;;;;9.00;6.00;;;;;;;9.40;98.24;97219.09;107160;1315;22269;-45
2023/04/01 06:33:49;;;;;;;7.60;5.90;;;;;;;9.40;98.21;97216.75;107163;1315;23255;-44
2023/04/01 06:36:35;;;;;;;12.20;6.60;;;;;;;9.44;98.03;97220.88;107157;1315;22309;-41
2023/04/01 06:39:16;;;;;;;15.80;6.60;;;;;;;9.48;97.88;97218.80;107156;1315;22431;-45
2023/04/01 06:42:19;;;;;;;10.40;6.70;;;;;;;9.56;97.46;97220.58;107164;1315;23086;-43
2023/04/01 06:45:06;;;;;;;10.00;6.60;;;;;;;9.65;97.56;97215.76;107178;1315;22459;-44
2023/04/01 06:48:03;;;;;;;8.00;6.00;;;;;;;9.73;97.28;97216.85;107168;1315;22350;-43
2023/04/01 06:50:37;;;;;;;11.40;6.60;;;;;;;9.76;97.15;97214.27;106907;1307;22522;-44
2023/04/01 06:53:24;;;;;;;7.10;5.50;;;;;;;9.83;96.86;97217.58;107156;1315;22276;-41
2023/04/01 06:55:59;;;;;;;11.70;6.30;;;;;;;9.72;96.98;97217.27;107165;1315;23095;-39
2023/04/01 06:58:35;;;;;;;12.30;5.90;;;;;;;9.74;97.38;97218.88;107161;1315;22970;-46
2023/04/01 07:01:05;;;;;;;10.10;6.10;;;;;;;9.82;96.87;97221.02;107259;1310;22260;-45
2023/04/01 07:03:56;;;;;;;9.00;6.40;;;;;;;9.85;96.45;97222.80;107607;1309;23082;-40
2023/04/01 07:06:30;;;;;;;6.90;6.00;;;;;;;9.84;96.68;97225.39;107666;1309;22522;-44
2023/04/01 07:09:00;;;;;;;7.00;5.90;;;;;;;9.88;96.28;97224.33;107651;1309;22774;-43
2023/04/01 07:11:35;;;;;;;84.50;42.60;;;;;;;9.89;96.09;97229.80;107659;1309;22901;-41
2023/04/01 07:14:19;;;;;;;12.10;9.10;;;;;;;9.79;96.67;97229.98;107686;1309;22238;-40
2023/04/01 07:16:59;;;;;;;11.90;6.40;;;;;;;9.85;96.55;97233.67;107666;1309;22255;-41
2023/04/01 07:19:40;;;;;;;10.00;6.30;;;;;;;9.86;96.45;97233.40;107669;1309;22484;-43
2023/04/01 07:22:29;;;;;;;12.20;7.10;;;;;;;9.91;96.28;97232.29;107682;1309;22950;-44
2023/04/01 07:24:57;;;;;;;7.50;6.70;;;;;;;9.93;95.98;97229.11;107664;1309;22249;-39
2023/04/01 07:27:23;;;;;;;11.90;5.90;;;;;;;9.98;95.59;97226.75;107654;1309;22378;-42
2023/04/01 07:29:48;;;;;;;9.10;6.10;;;;;;;10.07;95.68;97225.98;107662;1309;23035;-42
2023/04/01 07:32:32;;;;;;;11.70;6.20;;;;;;;10.11;95.12;97230.23;107683;1309;22226;-40
2023/04/01 07:35:10;;;;;;;10.60;6.60;;;;;;;10.11;95.12;97230.04;107668;1309;22269;-42
2023/04/01 07:38:07;;;;;;;12.40;7.10;;;;;;;10.09;95.33;97230.23;107675;1309;22336;-43
2023/04/01 07:40:38;;;;;;;10.50;7.20;;;;;;;10.14;95.51;97228.58;107666;1309;23192;-42
2023/04/01 07:43:21;;;;;;;9.50;6.60;;;;;;;10.23;95.36;97231.96;107660;1309;22328;-43
2023/04/01 07:46:05;;;;;;;12.00;6.90;;;;;;;10.29;95.31;97230.94;107653;1309;23013;-44
2023/04/01 07:48:45;;;;;;;9.60;6.50;;;;;;;10.34;95.03;97231.06;107669;1309;23256;-42
2023/04/01 07:51:34;;;;;;;8.20;6.20;;;;;;;10.42;94.54;97231.23;107681;1309;22412;-44
2023/04/01 07:54:08;;;;;;;9.10;6.40;;;;;;;10.51;94.31;97229.80;107616;1303;22508;-40
2023/04/01 07:56:40;;;;;;;7.50;5.40;;;;;;;10.56;94.15;97233.90;107517;1310;22708;-43
2023/04/01 07:59:17;;;;;;;9.40;5.80;;;;;;;10.57;93.33;97234.48;107543;1310;22236;-46
2023/04/01 08:02:14;;;;;;;6.30;5.50;;;;;;;10.67;92.87;97236.59;107533;1301;22688;-47
2023/04/01 08:05:04;;;;;;;7.20;5.90;;;;;;;10.71;92.72;97237.59;107535;1294;23103;-45
2023/04/01 08:08:08;;;;;;;11.80;6.00;;;;;;;10.74;92.77;97236.52;107666;1302;22672;-43
2023/04/01 08:10:47;;;;;;;5.70;4.60;;;;;;;10.86;92.37;97235.77;107673;1305;22403;-43
2023/04/01 08:13:34;;;;;;;5.90;4.50;;;;;;;10.94;91.92;97240.45;107628;1309;22354;-47
2023/04/01 08:16:13;;;;;;;5.40;4.20;;;;;;;10.95;91.72;97236.05;107631;1309;22245;-44
2023/04/01 08:19:02;;;;;;;8.10;4.90;;;;;;;10.95;91.79;97238.14;107626;1309;22399;-47
2023/04/01 08:21:47;;;;;;;9.60;6.10;;;;;;;10.81;91.80;97239.41;107693;1302;22471;-44
2023/04/01 08:24:39;;;;;;;12.10;6.20;;;;;;;10.75;92.53;97244.81;107652;1304;22254;-43
2023/04/01 08:27:13;;;;;;;5.40;4.90;;;;;;;10.71;93.31;97248.52;107100;1309;22500;-45
2023/04/01 08:29:46;;;;;;;6.20;4.80;;;;;;;10.60;94.26;97249.46;107658;1309;23172;-49
